KART/ART METAR and TAF weather

Enter ICAO airport designator
Station Type Date Time Source
KART METAR 2019/02/20 06:56 UTC NOAA

KART 200656Z AUTO 08004KT 7SM OVC034 M11/M12 A3058 RMK AO2 SLP365 T11111122 $


Station Type Date Time Source
KART Decoded METAR 2019/02/20 06:56 UTC NOAA

WATERTOWN INTERNATIONAL AIRPORT, NY, United States (KART) 43-59N 076-02W 100M
Feb 20, 2019 - 01:56 AM EST / 2019.02.20 0656 UTC
Wind: from the E (080 degrees) at 5 MPH (4 KT):0
Visibility: 7 mile(s):0
Sky conditions: overcast
Temperature: 12.0 F (-11.1 C)
Windchill: 3 F (-16 C):1
Dew Point: 10.0 F (-12.2 C)
Relative Humidity: 91%
Pressure (altimeter): 30.58 in. Hg (1035 hPa)
ob: KART 200656Z AUTO 08004KT 7SM OVC034 M11/M12 A3058 RMK AO2 SLP365 T11111122
cycle: 7

Station Type Date Time Source
KART TAF 2019/02/20 06:30 UTC NOAA

TAF KART 200526Z 2006/2106 20004KT P6SM BKN025
FM201000 VRB03KT P6SM SCT250
FM202100 14005KT P6SM OVC060
FM210100 13009KT 2SM -SN OVC030
FM210300 15011G22KT 1 1/2SM -SNPL OVC025
FM210500 17013G25KT 4SM -FZRA OVC025


Example: see airport list